createdAt,value
2023-05-05T05:03:06.101Z,25.00
2023-05-05T05:04:06.152Z,25.00
2023-05-05T05:05:07.116Z,25.00
2023-05-05T05:06:06.196Z,25.00
2023-05-05T05:07:06.200Z,25.00
2023-05-05T05:08:06.145Z,25.00
2023-05-05T05:09:07.240Z,0.00
2023-05-05T05:10:07.520Z,0.00
2023-05-05T05:11:06.349Z,0.00
2023-05-05T05:12:07.272Z,0.00
2023-05-05T05:13:06.475Z,0.00
2023-05-05T05:14:06.446Z,0.00
2023-05-05T05:15:06.482Z,0.00
2023-05-05T05:16:06.473Z,0.00
2023-05-05T05:17:07.447Z,0.00
2023-05-05T05:18:07.555Z,0.00
2023-05-05T05:19:06.549Z,0.00
2023-05-05T05:20:06.740Z,0.00
2023-05-05T05:21:06.619Z,0.00
2023-05-05T05:22:06.594Z,0.00
2023-05-05T05:23:07.591Z,0.00
2023-05-05T05:24:06.707Z,0.00
2023-05-05T05:25:06.607Z,0.00
2023-05-05T05:26:07.694Z,0.00
2023-05-05T05:27:09.183Z,0.00
2023-05-05T05:28:10.691Z,0.00
2023-05-05T05:29:06.700Z,0.00
2023-05-05T05:30:06.811Z,0.00
2023-05-05T05:31:06.589Z,0.00
2023-05-05T05:32:06.754Z,0.00
2023-05-05T05:33:06.597Z,0.00
2023-05-05T05:34:07.696Z,0.00
2023-05-05T05:35:06.663Z,11.15
2023-05-05T05:36:06.644Z,25.83
2023-05-05T05:37:06.623Z,25.00
2023-05-05T05:38:06.544Z,25.14
2023-05-05T05:39:06.600Z,25.67
2023-05-05T05:40:06.908Z,26.90
2023-05-05T05:41:06.559Z,27.51
2023-05-05T05:42:06.590Z,25.00
2023-05-05T05:43:07.528Z,27.74
2023-05-05T05:44:07.507Z,30.37
2023-05-05T05:45:07.492Z,25.74
2023-05-05T05:46:09.144Z,25.45
2023-05-05T05:47:07.480Z,25.00
2023-05-05T05:48:07.627Z,27.74
2023-05-05T05:49:06.471Z,29.11
2023-05-05T05:50:07.770Z,25.42
2023-05-05T05:51:06.506Z,27.78
2023-05-05T05:52:06.534Z,25.98
2023-05-05T05:53:07.473Z,30.94
2023-05-05T05:54:06.458Z,31.04
2023-05-05T05:55:06.452Z,29.20
2023-05-05T05:56:06.455Z,26.01
2023-05-05T05:57:06.395Z,30.45
2023-05-05T05:58:06.472Z,27.12
2023-05-05T05:59:07.381Z,30.65
2023-05-05T06:00:06.720Z,27.85
2023-05-05T06:01:06.366Z,27.53
2023-05-05T06:02:07.530Z,26.28
2023-05-05T06:03:06.656Z,25.00
2023-05-05T06:04:07.717Z,32.57
2023-05-05T06:05:07.382Z,44.34
2023-05-05T06:06:06.392Z,54.49
2023-05-05T06:07:06.354Z,62.23
2023-05-05T06:08:07.419Z,67.31
2023-05-05T06:09:06.336Z,72.84
2023-05-05T06:10:22.846Z,81.25
2023-05-05T06:11:07.341Z,81.68
2023-05-05T06:12:06.382Z,83.35
2023-05-05T06:13:06.451Z,86.13
2023-05-05T06:14:07.338Z,89.98
2023-05-05T06:15:06.372Z,98.30
2023-05-05T06:16:06.306Z,103.20
2023-05-05T06:17:07.327Z,112.17
2023-05-05T07:24:21.954Z,25.00
2023-05-05T07:25:22.633Z,25.00
2023-05-05T07:26:22.624Z,25.00
2023-05-05T07:27:22.633Z,25.00
2023-05-05T07:28:21.583Z,25.00
2023-05-05T07:29:22.651Z,9.92
2023-05-05T07:30:21.713Z,1.32
2023-05-05T07:31:22.589Z,10.46
2023-05-05T07:32:22.786Z,9.95
2023-05-05T07:33:22.565Z,25.36
2023-05-05T07:34:21.623Z,24.83
2023-05-05T07:35:22.655Z,23.70
2023-05-05T07:36:22.635Z,28.26
2023-05-05T07:37:22.616Z,26.86
2023-05-05T07:38:21.614Z,29.82
2023-05-05T07:39:21.579Z,23.78
2023-05-05T07:40:21.727Z,15.49
2023-05-05T07:41:21.553Z,25.27
2023-05-05T07:42:22.589Z,27.68
2023-05-05T07:43:22.584Z,26.44
2023-05-05T07:44:21.539Z,25.46
2023-05-05T07:45:21.545Z,26.56
2023-05-05T07:46:22.532Z,28.76
2023-05-05T07:47:21.628Z,35.70
2023-05-05T07:48:21.825Z,42.59
2023-05-05T07:49:22.440Z,35.38
2023-05-05T07:50:22.591Z,29.49
2023-05-05T07:51:21.513Z,27.69
2023-05-05T07:52:29.977Z,24.80
2023-05-05T07:53:22.823Z,24.86
2023-05-05T07:54:22.399Z,19.68
2023-05-05T07:55:21.388Z,22.02
2023-05-05T07:56:22.536Z,15.98
2023-05-05T07:57:22.405Z,19.73
2023-05-05T07:58:21.400Z,25.71
2023-05-05T07:59:21.432Z,31.90
2023-05-05T08:00:21.425Z,25.00
2023-05-05T08:01:21.356Z,37.55
2023-05-05T08:02:22.502Z,45.18
2023-05-05T08:03:22.690Z,44.80
2023-05-05T08:04:21.615Z,41.00
2023-05-05T08:05:21.516Z,54.48
2023-05-05T08:06:21.558Z,64.02
2023-05-05T08:07:21.588Z,55.22
2023-05-05T08:08:22.681Z,31.18
2023-05-05T08:09:21.618Z,28.83
2023-05-05T08:10:21.651Z,34.34
2023-05-05T08:11:22.652Z,36.14
2023-05-05T08:12:21.689Z,27.90
2023-05-05T08:13:21.704Z,28.08
2023-05-05T08:14:22.726Z,25.52
2023-05-05T08:15:22.780Z,40.00
2023-05-05T08:16:22.893Z,36.81
2023-05-05T08:17:22.815Z,28.49
2023-05-05T08:18:22.824Z,45.03
2023-05-05T08:19:28.806Z,38.49
2023-05-05T08:20:22.844Z,38.54
2023-05-05T08:21:21.828Z,34.36
2023-05-05T08:22:22.853Z,39.51
2023-05-05T08:23:21.924Z,28.54
2023-05-05T08:24:21.818Z,46.15
2023-05-05T08:25:22.799Z,50.00
2023-05-05T08:26:22.867Z,40.78
2023-05-05T08:27:22.792Z,48.77
2023-05-05T08:28:21.967Z,59.99
2023-05-05T08:29:21.817Z,60.78
2023-05-05T08:30:21.802Z,65.59
2023-05-05T08:31:22.891Z,53.07
2023-05-05T08:32:22.831Z,58.71
2023-05-05T08:33:21.763Z,54.17
2023-05-05T08:34:22.763Z,53.49
2023-05-05T08:35:22.791Z,59.98
2023-05-05T08:36:21.795Z,51.88
2023-05-05T08:37:21.787Z,63.37
2023-05-05T08:38:21.784Z,46.76
2023-05-05T08:39:21.713Z,43.72
2023-05-05T08:40:21.716Z,35.81
2023-05-05T08:41:22.707Z,26.04
2023-05-05T08:42:35.616Z,25.29
2023-05-05T08:43:22.813Z,25.47
2023-05-05T08:44:21.851Z,26.46
2023-05-05T08:45:21.737Z,28.86
2023-05-05T08:46:21.690Z,32.83
2023-05-05T08:47:22.708Z,33.16
2023-05-05T08:48:22.711Z,40.22
2023-05-05T08:49:22.713Z,32.12
2023-05-05T08:50:21.652Z,27.78
2023-05-05T08:51:24.375Z,41.90
2023-05-05T08:52:22.694Z,45.47
2023-05-05T08:53:22.692Z,49.39
2023-05-05T08:54:22.654Z,49.22
2023-05-05T08:55:21.685Z,47.68
2023-05-05T08:56:21.681Z,39.75
2023-05-05T08:57:22.614Z,44.47
2023-05-05T08:58:21.838Z,54.65
2023-05-05T08:59:21.594Z,73.85
2023-05-05T09:00:22.919Z,76.42
2023-05-05T09:01:21.694Z,92.09
2023-05-05T09:02:21.697Z,117.15
2023-05-05T09:03:21.657Z,126.22
2023-05-05T09:04:21.562Z,112.25
2023-05-05T09:05:21.612Z,121.57
2023-05-05T09:06:21.552Z,112.75
2023-05-05T09:07:21.533Z,118.82
2023-05-05T09:08:22.615Z,113.69
2023-05-05T09:09:21.589Z,96.03
2023-05-05T09:10:21.605Z,104.70
2023-05-05T09:11:21.532Z,100.07
2023-05-05T09:12:21.568Z,102.71
2023-05-05T09:13:26.582Z,106.87
2023-05-05T09:14:22.570Z,107.37
2023-05-05T09:15:21.484Z,109.38
2023-05-05T09:16:22.655Z,112.25
2023-05-05T09:17:21.476Z,127.55
2023-05-05T09:18:22.544Z,153.16
2023-05-05T09:19:21.475Z,159.67
2023-05-05T09:20:21.523Z,169.60
2023-05-05T09:21:21.495Z,174.94
2023-05-05T09:22:22.466Z,176.21
2023-05-05T09:23:22.561Z,166.24
2023-05-05T09:24:21.530Z,169.39
2023-05-05T09:25:22.610Z,171.62
2023-05-05T09:26:21.612Z,179.51
2023-05-05T09:27:21.681Z,183.28
2023-05-05T09:28:21.742Z,178.63
2023-05-05T09:29:21.756Z,167.65
2023-05-05T09:30:22.866Z,171.46
2023-05-05T09:31:21.927Z,165.71
2023-05-05T09:32:21.976Z,180.49
2023-05-05T09:33:21.928Z,183.93
2023-05-05T09:34:23.072Z,194.47
2023-05-05T09:35:22.129Z,177.96
2023-05-05T09:36:22.149Z,169.92
2023-05-05T09:37:22.107Z,180.57
2023-05-05T09:38:23.256Z,171.93
2023-05-05T09:39:23.205Z,154.45
2023-05-05T09:40:22.334Z,124.40
2023-05-05T09:41:22.358Z,125.49
2023-05-05T09:42:22.364Z,120.00
2023-05-05T09:43:23.469Z,98.76
2023-05-05T09:44:22.501Z,95.31
2023-05-05T09:45:22.619Z,89.42
2023-05-05T09:46:22.751Z,78.49
2023-05-05T09:47:29.738Z,67.12
2023-05-05T09:48:23.716Z,67.24
2023-05-05T09:49:22.886Z,40.78
2023-05-05T09:50:22.587Z,7.97
2023-05-05T09:51:22.574Z,29.28
2023-05-05T09:52:22.559Z,31.10
2023-05-05T09:53:23.591Z,28.05
2023-05-05T09:54:23.900Z,35.00
2023-05-05T09:55:22.606Z,33.83
2023-05-05T09:56:23.583Z,57.89
2023-05-05T09:57:22.580Z,70.30
2023-05-05T09:58:23.591Z,46.00
2023-05-05T09:59:22.577Z,37.65
2023-05-05T10:00:22.591Z,30.49
2023-05-05T10:01:22.523Z,42.08
2023-05-05T10:02:23.537Z,65.67
2023-05-05T10:03:22.482Z,62.54
2023-05-05T10:04:22.720Z,77.73
2023-05-05T10:05:22.509Z,67.67
2023-05-05T10:06:22.505Z,46.78
2023-05-05T10:07:22.544Z,25.00
2023-05-05T10:08:22.449Z,48.89
2023-05-05T10:09:23.511Z,73.21
2023-05-05T10:10:22.449Z,89.15
2023-05-05T10:11:22.442Z,92.20
2023-05-05T10:12:23.479Z,102.39
2023-05-05T10:13:22.423Z,91.34
2023-05-05T10:14:23.423Z,104.25
2023-05-05T10:15:23.423Z,108.66
2023-05-05T10:16:23.629Z,125.19
2023-05-05T10:17:23.497Z,112.53
2023-05-05T10:18:23.640Z,124.59
2023-05-05T10:19:22.672Z,124.95
2023-05-05T10:20:22.597Z,123.22
2023-05-05T10:21:22.606Z,135.50
2023-05-05T10:22:22.584Z,147.69
2023-05-05T10:23:22.614Z,170.37
2023-05-05T10:24:22.647Z,188.33
2023-05-05T10:25:22.620Z,176.89
2023-05-05T10:26:22.668Z,179.72
2023-05-05T10:27:22.672Z,186.73
2023-05-05T10:28:22.832Z,188.37
2023-05-05T10:29:22.657Z,187.27
2023-05-05T10:30:23.675Z,193.65
2023-05-05T10:31:26.560Z,190.12
2023-05-05T10:32:50.180Z,190.33
2023-05-05T10:34:22.696Z,190.50
2023-05-05T10:35:22.690Z,192.00
2023-05-05T10:36:23.832Z,193.82
2023-05-05T10:37:22.668Z,188.72
2023-05-05T10:38:24.725Z,188.14
2023-05-05T10:39:23.570Z,190.18
2023-05-05T10:40:22.608Z,188.32
2023-05-05T10:41:23.559Z,191.68
2023-05-05T10:42:23.628Z,192.40
2023-05-05T10:43:23.577Z,190.75
2023-05-05T10:44:23.891Z,186.03
2023-05-05T10:45:22.711Z,190.49
2023-05-05T10:46:22.690Z,187.78
2023-05-05T10:47:22.585Z,176.70
2023-05-05T10:48:22.635Z,174.14
2023-05-05T10:49:22.588Z,185.53
2023-05-05T10:50:22.563Z,176.71
2023-05-05T10:51:35.385Z,168.32
2023-05-05T10:52:23.668Z,168.78
2023-05-05T10:53:22.533Z,170.86
2023-05-05T10:54:22.622Z,174.01
2023-05-05T10:55:23.479Z,174.21
2023-05-05T10:56:23.493Z,175.38
2023-05-05T10:57:22.496Z,175.57
2023-05-05T10:58:22.462Z,175.27
2023-05-05T10:59:22.433Z,175.13
2023-05-05T11:00:22.459Z,180.41
2023-05-05T11:01:23.529Z,177.95
2023-05-05T11:02:23.577Z,165.20
2023-05-05T11:03:22.658Z,165.19
2023-05-05T11:04:22.433Z,156.42
2023-05-05T11:05:22.485Z,165.85
2023-05-05T11:06:22.502Z,161.73
2023-05-05T11:07:22.411Z,159.58
2023-05-05T11:08:23.550Z,129.69
2023-05-05T11:09:23.381Z,129.15
2023-05-05T11:10:22.377Z,125.93
2023-05-05T11:11:22.387Z,141.16
2023-05-05T11:12:22.401Z,145.62
2023-05-05T11:13:22.494Z,154.21
2023-05-05T11:14:23.349Z,152.62
2023-05-05T11:15:22.447Z,157.27
2023-05-05T11:16:22.497Z,173.66
2023-05-05T11:17:23.322Z,164.07
2023-05-05T11:18:22.299Z,169.19
2023-05-05T11:19:23.372Z,177.02
2023-05-05T11:20:23.389Z,168.00
2023-05-05T11:21:23.379Z,166.26
2023-05-05T11:22:22.348Z,152.79
2023-05-05T11:23:22.358Z,164.47
2023-05-05T11:24:23.369Z,145.40
2023-05-05T11:25:23.485Z,134.02
2023-05-05T11:26:23.300Z,123.39
2023-05-05T11:27:23.283Z,143.73
2023-05-05T11:28:22.300Z,142.64
2023-05-05T11:29:22.275Z,139.18
2023-05-05T11:30:22.284Z,141.27
2023-05-05T11:31:22.332Z,158.82
2023-05-05T11:32:22.231Z,174.87
2023-05-05T11:33:22.266Z,170.43
2023-05-05T11:34:22.233Z,153.77
2023-05-05T11:35:22.258Z,160.62
2023-05-05T11:36:22.238Z,144.61
2023-05-05T11:37:22.283Z,150.61
2023-05-05T11:38:23.183Z,151.73
2023-05-05T11:39:23.206Z,161.60
2023-05-05T11:40:22.297Z,169.22
2023-05-05T11:41:23.226Z,173.01
2023-05-05T11:42:23.211Z,177.02
2023-05-05T11:43:22.224Z,183.31
2023-05-05T11:44:22.191Z,187.86
2023-05-05T11:45:22.221Z,184.69
2023-05-05T11:46:22.197Z,185.47
2023-05-05T11:47:22.151Z,185.37
2023-05-05T11:48:22.112Z,189.63
2023-05-05T11:49:23.183Z,190.57
2023-05-05T11:50:22.101Z,195.06
2023-05-05T11:51:22.114Z,196.94
2023-05-05T11:52:22.092Z,200.88
2023-05-05T11:53:22.124Z,202.52
2023-05-05T11:54:22.146Z,201.37
2023-05-05T11:55:23.184Z,201.24
2023-05-05T11:56:23.464Z,201.80
2023-05-05T11:57:22.064Z,204.83
2023-05-05T11:58:23.129Z,207.09
2023-05-05T11:59:22.180Z,206.14
2023-05-05T12:00:22.163Z,207.11
2023-05-05T12:01:22.092Z,206.99
2023-05-05T12:02:22.134Z,205.08
2023-05-05T12:03:22.171Z,206.56
2023-05-05T12:04:22.140Z,208.85
2023-05-05T12:05:22.010Z,206.18
2023-05-05T12:06:22.013Z,210.26
2023-05-05T12:07:22.015Z,210.14
2023-05-05T12:08:22.025Z,211.24
2023-05-05T12:09:21.981Z,209.85
2023-05-05T12:10:22.050Z,211.66
2023-05-05T12:11:21.958Z,213.04
2023-05-05T12:12:22.044Z,214.02
2023-05-05T12:13:22.118Z,213.29
2023-05-05T12:14:21.989Z,216.11
2023-05-05T12:15:21.915Z,212.76
2023-05-05T12:16:23.014Z,212.22
2023-05-05T12:17:23.062Z,214.16
2023-05-05T12:18:21.985Z,211.45
2023-05-05T12:19:22.972Z,215.92
2023-05-05T12:20:22.008Z,219.96
2023-05-05T12:21:22.003Z,216.77
2023-05-05T12:22:22.017Z,213.54
2023-05-05T12:23:22.036Z,214.99
2023-05-05T12:24:23.053Z,217.82
2023-05-05T12:25:22.013Z,215.63
2023-05-05T12:26:22.107Z,216.04
2023-05-05T12:27:22.127Z,214.41
2023-05-05T12:28:22.305Z,214.81
2023-05-05T12:29:22.168Z,214.57
2023-05-05T12:30:23.238Z,212.69
2023-05-05T12:31:22.283Z,213.48
2023-05-05T12:32:23.268Z,215.82
2023-05-05T12:33:22.219Z,214.38
2023-05-05T12:34:23.234Z,213.93
2023-05-05T12:35:23.370Z,216.36
2023-05-05T12:36:22.377Z,215.84
2023-05-05T12:37:22.296Z,214.38
2023-05-05T12:38:23.334Z,215.89
2023-05-05T12:39:22.370Z,212.94
2023-05-05T12:40:23.509Z,210.59
2023-05-05T12:41:22.422Z,211.43
2023-05-05T12:42:22.594Z,214.55
2023-05-05T12:43:22.546Z,216.87
2023-05-05T12:44:22.835Z,213.56
2023-05-05T12:45:23.956Z,214.34
2023-05-05T12:46:23.596Z,215.76
2023-05-05T12:47:23.638Z,214.47
2023-05-05T12:48:22.641Z,211.90
2023-05-05T12:49:23.650Z,212.87
2023-05-05T12:50:22.759Z,213.05
2023-05-05T12:51:22.696Z,210.20
2023-05-05T12:52:22.806Z,212.58
2023-05-05T12:53:22.757Z,209.95
2023-05-05T12:54:23.843Z,213.23
2023-05-05T12:55:22.869Z,210.76
2023-05-05T12:56:23.870Z,210.73
2023-05-05T12:57:23.897Z,209.23
2023-05-05T12:58:22.868Z,210.10
2023-05-05T12:59:22.997Z,209.28
2023-05-05T13:00:23.096Z,207.63
2023-05-05T13:01:24.072Z,207.69
2023-05-05T13:02:23.096Z,208.36
2023-05-05T13:03:24.121Z,206.97
2023-05-05T13:04:24.071Z,207.77
2023-05-05T13:05:23.071Z,206.66
2023-05-05T13:06:23.162Z,205.80
2023-05-05T13:07:23.181Z,205.17
2023-05-05T13:08:23.201Z,202.32
2023-05-05T13:09:24.229Z,204.86
2023-05-05T13:10:23.300Z,202.83
2023-05-05T13:11:23.266Z,206.01
2023-05-05T13:12:25.133Z,204.80
2023-05-05T13:13:23.313Z,206.44
2023-05-05T13:14:23.278Z,204.53
2023-05-05T13:15:23.336Z,205.08
2023-05-05T13:16:24.526Z,203.70
2023-05-05T13:17:23.382Z,205.55
2023-05-05T13:18:23.473Z,203.30
2023-05-05T13:19:23.428Z,200.26
2023-05-05T13:20:23.491Z,200.93
2023-05-05T13:21:24.552Z,201.84
2023-05-05T13:22:23.573Z,199.95
2023-05-05T13:23:25.730Z,203.66
2023-05-05T13:24:31.637Z,199.72
2023-05-05T13:25:24.639Z,199.83
2023-05-05T13:26:24.522Z,199.88
2023-05-05T13:27:24.607Z,199.83
2023-05-05T13:28:23.577Z,198.44
2023-05-05T13:29:28.355Z,199.82
2023-05-05T13:30:24.499Z,199.90
2023-05-05T13:31:23.619Z,200.02
2023-05-05T13:32:23.723Z,199.95
2023-05-05T13:33:24.486Z,200.52
2023-05-05T13:34:23.561Z,202.33
2023-05-05T13:35:24.543Z,200.40
2023-05-05T13:36:23.602Z,198.61
2023-05-05T13:37:23.511Z,197.29
2023-05-05T13:38:23.516Z,196.61
2023-05-05T13:39:24.442Z,196.43
2023-05-05T13:40:25.921Z,197.20
2023-05-05T13:41:24.764Z,197.88
2023-05-05T13:42:23.737Z,192.37
2023-05-05T13:43:23.766Z,193.73
2023-05-05T13:44:24.824Z,193.58
2023-05-05T13:45:23.747Z,193.54
2023-05-05T13:46:24.790Z,191.61
2023-05-05T13:47:23.969Z,191.14
2023-05-05T13:48:24.956Z,193.36
2023-05-05T13:49:23.950Z,192.77
2023-05-05T13:50:23.936Z,189.49
2023-05-05T13:51:23.952Z,190.98
2023-05-05T13:52:25.031Z,192.22
2023-05-05T13:53:25.065Z,193.34
2023-05-05T13:54:24.012Z,190.34
2023-05-05T13:55:24.037Z,190.12
2023-05-05T13:56:24.176Z,189.67
2023-05-05T13:57:24.116Z,190.70
2023-05-05T13:58:24.230Z,191.75
2023-05-05T13:59:24.229Z,190.83
2023-05-05T14:00:25.296Z,190.11
2023-05-05T14:01:24.433Z,191.50
2023-05-05T14:02:25.445Z,186.88
2023-05-05T14:03:24.287Z,188.95
2023-05-05T14:04:25.640Z,189.43
2023-05-05T14:05:24.303Z,189.62
2023-05-05T14:06:24.338Z,187.76
2023-05-05T14:07:25.421Z,189.54
2023-05-05T14:08:25.473Z,187.03
2023-05-05T14:09:24.422Z,187.28
2023-05-05T14:10:24.500Z,189.34
2023-05-05T14:11:24.554Z,186.69
2023-05-05T14:12:24.506Z,185.00
2023-05-05T14:13:24.593Z,189.57
2023-05-05T14:14:24.505Z,189.76
2023-05-05T14:15:24.551Z,185.98
2023-05-05T14:16:25.653Z,183.67
2023-05-05T14:17:25.593Z,182.88
2023-05-05T14:18:25.646Z,184.09
2023-05-05T14:19:24.700Z,184.13
2023-05-05T14:20:24.817Z,186.96
2023-05-05T14:21:24.768Z,184.35
2023-05-05T14:22:24.688Z,185.51
2023-05-05T14:23:25.749Z,185.15
2023-05-05T14:24:24.788Z,182.90
2023-05-05T14:25:24.829Z,182.84
2023-05-05T14:26:24.771Z,184.45
2023-05-05T14:27:25.794Z,181.29
2023-05-05T14:28:24.912Z,182.39
2023-05-05T14:29:25.851Z,184.07
2023-05-05T14:30:25.974Z,181.61
2023-05-05T14:31:25.001Z,184.20
2023-05-05T14:32:24.978Z,182.53
2023-05-05T14:33:25.002Z,182.52
2023-05-05T14:34:25.933Z,180.76
2023-05-05T14:35:25.052Z,180.50
2023-05-05T14:36:25.294Z,181.21
2023-05-05T14:37:26.058Z,179.73
2023-05-05T14:38:25.106Z,177.89
2023-05-05T14:39:25.052Z,178.20
2023-05-05T14:40:26.111Z,178.60
2023-05-05T14:41:25.121Z,181.36
2023-05-05T14:42:25.098Z,178.26
2023-05-05T14:43:25.122Z,177.26
2023-05-05T14:44:25.167Z,179.13
2023-05-05T14:45:25.248Z,178.48
2023-05-05T14:46:25.347Z,178.20
2023-05-05T14:47:25.310Z,177.53
2023-05-05T14:48:25.245Z,177.16
2023-05-05T14:49:26.299Z,178.27
2023-05-05T14:50:25.312Z,178.24
2023-05-05T14:51:25.379Z,176.94
2023-05-05T14:52:25.457Z,178.37
2023-05-05T14:53:25.347Z,177.53
2023-05-05T14:54:28.764Z,176.87
2023-05-05T14:55:26.402Z,178.90
2023-05-05T14:56:25.333Z,180.96
2023-05-05T14:57:26.438Z,179.94
2023-05-05T14:58:25.309Z,179.09
2023-05-05T14:59:25.388Z,181.24
2023-05-05T15:00:26.300Z,179.27
2023-05-05T15:01:26.439Z,178.40
2023-05-05T15:02:25.349Z,176.93
2023-05-05T15:03:25.430Z,180.10
2023-05-05T15:04:25.326Z,182.68
2023-05-05T15:05:25.341Z,181.71
2023-05-05T15:06:25.345Z,182.05
2023-05-05T15:07:25.277Z,183.65
2023-05-05T15:08:25.329Z,183.35
2023-05-05T15:09:26.295Z,183.64
2023-05-05T15:10:25.229Z,183.46
2023-05-05T15:11:25.302Z,191.63
2023-05-05T15:12:25.298Z,210.21
2023-05-05T15:13:26.202Z,222.22
2023-05-05T15:14:26.208Z,222.55
2023-05-05T15:15:26.188Z,217.09
2023-05-05T15:16:25.289Z,211.70
2023-05-05T15:17:25.319Z,212.62
2023-05-05T15:18:25.166Z,208.59
2023-05-05T15:19:26.157Z,209.45
2023-05-05T15:20:26.217Z,209.18
2023-05-05T15:21:25.151Z,209.64
2023-05-05T15:22:26.203Z,210.32
2023-05-05T15:23:25.139Z,208.87
2023-05-05T15:24:25.236Z,209.15
2023-05-05T15:25:26.139Z,207.17
2023-05-05T15:26:25.217Z,208.30
2023-05-05T15:27:25.169Z,207.42
2023-05-05T15:28:25.189Z,206.57
2023-05-05T15:29:25.174Z,207.36
